createdAt,value
2018-12-21T00:00:15.300Z,85.17
2018-12-21T00:01:15.251Z,84.97
2018-12-21T00:02:15.310Z,85.07
2018-12-21T00:03:15.233Z,85.17
2018-12-21T00:04:15.270Z,85.28
2018-12-21T00:05:15.209Z,85.17
2018-12-21T00:06:15.257Z,84.97
2018-12-21T00:07:15.197Z,85.24
2018-12-21T00:08:15.176Z,84.66
2018-12-21T00:09:15.160Z,84.93
2018-12-21T00:10:15.177Z,84.83
2018-12-21T00:11:15.163Z,84.52
2018-12-21T00:12:15.166Z,84.52
2018-12-21T00:13:15.121Z,83.70
2018-12-21T00:14:15.107Z,84.42
2018-12-21T00:15:15.102Z,84.11
2018-12-21T00:16:15.124Z,84.62
2018-12-21T00:17:15.114Z,84.52
2018-12-21T00:18:15.095Z,84.42
2018-12-21T00:19:15.115Z,84.11
2018-12-21T00:20:15.041Z,83.90
2018-12-21T00:21:21.807Z,83.65
2018-12-21T00:22:16.018Z,84.17
2018-12-21T00:23:15.023Z,83.90
2018-12-21T00:24:15.040Z,83.76
2018-12-21T00:25:15.009Z,84.21
2018-12-21T00:26:14.976Z,83.80
2018-12-21T00:27:14.963Z,83.76
2018-12-21T00:28:14.952Z,83.45
2018-12-21T00:29:14.946Z,83.59
2018-12-21T00:30:15.005Z,83.45
2018-12-21T00:31:14.933Z,83.28
2018-12-21T00:32:14.924Z,82.83
2018-12-21T00:33:14.899Z,83.45
2018-12-21T00:34:14.899Z,83.28
2018-12-21T00:35:14.879Z,83.14
2018-12-21T00:36:14.993Z,83.39
2018-12-21T00:37:14.857Z,83.49
2018-12-21T00:38:14.861Z,83.25
2018-12-21T00:39:14.859Z,83.07
2018-12-21T00:40:14.838Z,83.65
2018-12-21T00:41:14.815Z,83.25
2018-12-21T00:42:14.970Z,83.25
2018-12-21T00:43:14.802Z,83.86
2018-12-21T00:44:14.786Z,83.97
2018-12-21T00:45:14.785Z,83.86
2018-12-21T00:46:14.764Z,83.86
2018-12-21T00:47:14.754Z,84.07
2018-12-21T00:48:14.776Z,83.59
2018-12-21T00:49:14.721Z,83.04
2018-12-21T00:50:14.724Z,83.25
2018-12-21T00:51:14.712Z,83.35
2018-12-21T00:52:14.698Z,82.73
2018-12-21T00:53:14.689Z,83.45
2018-12-21T00:54:14.735Z,82.93
2018-12-21T00:55:14.656Z,83.45
2018-12-21T00:56:14.642Z,83.55
2018-12-21T00:57:14.646Z,83.45
2018-12-21T00:58:14.629Z,82.83
2018-12-21T00:59:14.633Z,83.35
2018-12-21T01:00:14.702Z,82.93
2018-12-21T01:01:14.625Z,82.39
2018-12-21T01:02:14.576Z,81.91
2018-12-21T01:03:14.567Z,81.76
2018-12-21T01:04:14.565Z,81.81
2018-12-21T01:05:14.546Z,81.87
2018-12-21T01:06:14.588Z,81.56
2018-12-21T01:07:14.522Z,81.35
2018-12-21T01:08:14.513Z,81.46
2018-12-21T01:09:14.503Z,81.46
2018-12-21T01:10:14.498Z,81.87
2018-12-21T01:11:14.560Z,81.56
2018-12-21T01:12:14.537Z,81.87
2018-12-21T01:13:14.470Z,81.46
2018-12-21T01:14:14.460Z,81.46
2018-12-21T01:15:14.456Z,81.46
2018-12-21T01:16:14.451Z,81.76
2018-12-21T01:17:14.414Z,81.56
2018-12-21T01:18:14.434Z,81.56
2018-12-21T01:19:14.391Z,81.35
2018-12-21T01:20:14.476Z,81.56
2018-12-21T01:21:14.370Z,81.97
2018-12-21T01:22:14.381Z,81.56
2018-12-21T01:23:14.351Z,82.18
2018-12-21T01:24:14.376Z,82.59
2018-12-21T01:25:14.323Z,82.42
2018-12-21T01:26:14.318Z,82.48
2018-12-21T01:27:14.302Z,81.67
2018-12-21T01:28:14.301Z,81.67
2018-12-21T01:29:14.281Z,82.79
2018-12-21T01:30:14.302Z,81.87
2018-12-21T01:31:14.260Z,82.48
2018-12-21T01:32:14.246Z,81.76
2018-12-21T01:33:14.236Z,81.87
2018-12-21T01:34:14.231Z,82.48
2018-12-21T01:35:14.216Z,82.48
2018-12-21T01:36:14.250Z,82.83
2018-12-21T01:37:14.191Z,82.28
2018-12-21T01:38:14.180Z,82.69
2018-12-21T01:39:14.173Z,82.73
2018-12-21T01:40:14.170Z,82.79
2018-12-21T01:41:14.164Z,82.48
2018-12-21T01:42:14.177Z,83.04
2018-12-21T01:43:14.142Z,83.35
2018-12-21T01:44:14.114Z,83.51
2018-12-21T01:45:14.107Z,83.20
2018-12-21T01:46:14.091Z,83.00
2018-12-21T01:47:14.105Z,83.00
2018-12-21T01:48:14.098Z,83.31
2018-12-21T01:49:14.068Z,83.20
2018-12-21T01:50:14.045Z,83.51
2018-12-21T01:51:14.047Z,83.00
2018-12-21T01:52:14.030Z,83.00
2018-12-21T01:53:14.020Z,83.41
2018-12-21T01:54:14.053Z,83.41
2018-12-21T01:55:14.005Z,83.25
2018-12-21T01:56:13.978Z,83.31
2018-12-21T01:57:13.972Z,83.31
2018-12-21T01:58:13.959Z,83.83
2018-12-21T01:59:13.952Z,83.51
2018-12-21T02:00:13.993Z,83.20
2018-12-21T02:01:13.931Z,83.31
2018-12-21T02:02:13.916Z,83.31
2018-12-21T02:03:13.902Z,82.79
2018-12-21T02:04:13.897Z,82.86
2018-12-21T02:05:13.892Z,83.31
2018-12-21T02:06:13.960Z,83.31
2018-12-21T02:07:13.870Z,83.00
2018-12-21T02:08:13.862Z,83.83
2018-12-21T02:09:13.849Z,83.62
2018-12-21T02:10:13.864Z,83.62
2018-12-21T02:11:13.819Z,83.31
2018-12-21T02:12:13.836Z,83.00
2018-12-21T02:13:13.802Z,83.06
2018-12-21T02:14:13.782Z,83.06
2018-12-21T02:15:13.777Z,83.17
2018-12-21T02:16:13.788Z,83.37
2018-12-21T02:17:13.847Z,82.45
2018-12-21T02:18:13.778Z,82.96
2018-12-21T02:19:13.729Z,83.17
2018-12-21T02:20:13.727Z,83.20
2018-12-21T02:21:13.709Z,82.86
2018-12-21T02:22:13.702Z,82.86
2018-12-21T02:23:13.686Z,82.65
2018-12-21T02:24:13.706Z,83.37
2018-12-21T02:25:13.675Z,82.76
2018-12-21T02:26:13.651Z,83.06
2018-12-21T02:27:13.644Z,82.96
2018-12-21T02:28:13.634Z,82.96
2018-12-21T02:29:13.637Z,83.27
2018-12-21T02:30:13.647Z,82.96
2018-12-21T02:31:13.606Z,82.96
2018-12-21T02:32:13.611Z,83.17
2018-12-21T02:33:13.600Z,83.17
2018-12-21T02:34:13.579Z,83.06
2018-12-21T02:35:13.573Z,83.27
2018-12-21T02:36:13.586Z,83.06
2018-12-21T02:37:13.544Z,83.51
2018-12-21T02:38:13.529Z,83.41
2018-12-21T02:39:13.510Z,83.11
2018-12-21T02:40:13.499Z,83.83
2018-12-21T02:41:13.504Z,83.99
2018-12-21T02:42:13.523Z,84.13
2018-12-21T02:43:13.471Z,84.13
2018-12-21T02:44:13.468Z,84.13
2018-12-21T02:45:13.458Z,84.03
2018-12-21T02:46:13.437Z,83.72
2018-12-21T02:47:13.466Z,83.72
2018-12-21T02:48:13.482Z,83.89
2018-12-21T02:49:13.401Z,83.89
2018-12-21T02:50:13.393Z,83.58
2018-12-21T02:51:13.381Z,83.92
2018-12-21T02:52:13.367Z,83.78
2018-12-21T02:53:13.373Z,83.48
2018-12-21T02:54:13.405Z,83.58
2018-12-21T02:55:13.350Z,83.11
2018-12-21T02:56:13.339Z,83.78
2018-12-21T02:57:13.385Z,83.31
2018-12-21T02:58:13.313Z,83.78
2018-12-21T02:59:13.312Z,83.78
2018-12-21T03:00:13.311Z,83.17
2018-12-21T03:01:13.287Z,83.17
2018-12-21T03:02:13.274Z,83.72
2018-12-21T03:03:13.242Z,83.83
2018-12-21T03:04:13.242Z,84.13
2018-12-21T03:05:13.225Z,83.72
2018-12-21T03:06:13.412Z,84.23
2018-12-21T03:07:13.209Z,84.23
2018-12-21T03:08:13.190Z,84.23
2018-12-21T03:09:13.186Z,84.23
2018-12-21T03:10:13.176Z,83.83
2018-12-21T03:11:13.155Z,84.03
2018-12-21T03:12:13.204Z,83.51
2018-12-21T03:13:13.140Z,84.23
2018-12-21T03:14:13.142Z,84.58
2018-12-21T03:15:13.167Z,84.44
2018-12-21T03:16:13.106Z,84.75
2018-12-21T03:17:13.259Z,84.44
2018-12-21T03:18:13.128Z,84.75
2018-12-21T03:19:13.064Z,84.75
2018-12-21T03:20:13.068Z,85.06
2018-12-21T03:21:13.042Z,84.54
2018-12-21T03:22:15.156Z,84.85
2018-12-21T03:23:13.048Z,84.95
2018-12-21T03:24:13.055Z,85.36
2018-12-21T03:25:13.001Z,85.06
2018-12-21T03:26:12.989Z,85.26
2018-12-21T03:27:12.981Z,85.10
2018-12-21T03:28:13.013Z,85.20
2018-12-21T03:29:12.958Z,85.26
2018-12-21T03:30:12.996Z,84.85
2018-12-21T03:31:13.069Z,84.75
2018-12-21T03:32:12.981Z,84.75
2018-12-21T03:33:12.935Z,84.50
2018-12-21T03:34:12.924Z,84.85
2018-12-21T03:35:13.011Z,85.16
2018-12-21T03:36:12.968Z,85.26
2018-12-21T03:37:12.906Z,85.06
2018-12-21T03:38:12.853Z,85.02
2018-12-21T03:39:12.854Z,85.26
2018-12-21T03:40:12.850Z,85.33
2018-12-21T03:41:12.825Z,85.57
2018-12-21T03:42:12.852Z,85.57
2018-12-21T03:43:12.813Z,85.57
2018-12-21T03:44:12.790Z,85.26
2018-12-21T03:45:12.792Z,85.26
2018-12-21T03:46:12.789Z,85.26
2018-12-21T03:47:12.749Z,85.36
2018-12-21T03:48:12.784Z,85.12
2018-12-21T03:49:12.730Z,85.33
2018-12-21T03:50:12.718Z,85.43
2018-12-21T03:51:12.706Z,85.78
2018-12-21T03:52:12.703Z,85.63
2018-12-21T03:53:12.698Z,85.22
2018-12-21T03:54:12.714Z,85.12
2018-12-21T03:55:12.667Z,85.33
2018-12-21T03:56:12.661Z,85.22
2018-12-21T03:57:12.645Z,85.43
2018-12-21T03:58:12.632Z,85.43
2018-12-21T03:59:12.620Z,85.63
2018-12-21T04:00:12.653Z,85.47
2018-12-21T04:01:12.657Z,85.43
2018-12-21T04:02:12.603Z,85.84
2018-12-21T04:03:12.602Z,85.53
2018-12-21T04:04:12.578Z,85.43
2018-12-21T04:05:12.561Z,85.84
2018-12-21T04:06:12.590Z,86.05
2018-12-21T04:07:12.547Z,85.94
2018-12-21T04:08:12.539Z,85.84
2018-12-21T04:09:12.513Z,85.74
2018-12-21T04:10:12.499Z,86.15
2018-12-21T04:11:12.498Z,85.98
2018-12-21T04:12:12.515Z,85.98
2018-12-21T04:13:12.466Z,85.98
2018-12-21T04:14:12.471Z,85.94
2018-12-21T04:15:12.448Z,85.94
2018-12-21T04:16:12.462Z,85.63
2018-12-21T04:17:12.425Z,85.43
2018-12-21T04:18:12.463Z,85.33
2018-12-21T04:19:12.409Z,85.53
2018-12-21T04:20:19.989Z,85.22
2018-12-21T04:21:19.918Z,85.22
2018-12-21T04:22:19.914Z,85.43
2018-12-21T04:23:20.583Z,85.63
2018-12-21T04:24:12.345Z,85.63
2018-12-21T04:25:12.335Z,85.63
2018-12-21T04:26:12.320Z,85.53
2018-12-21T04:27:12.307Z,85.53
2018-12-21T04:28:12.300Z,85.43
2018-12-21T04:29:12.325Z,85.63
2018-12-21T04:30:12.314Z,85.43
2018-12-21T04:31:12.263Z,85.43
2018-12-21T04:32:12.250Z,85.22
2018-12-21T04:33:12.249Z,85.12
2018-12-21T04:34:12.235Z,85.02
2018-12-21T04:35:12.281Z,85.22
2018-12-21T04:36:12.213Z,85.33
2018-12-21T04:37:12.207Z,85.33
2018-12-21T04:38:12.188Z,85.60
2018-12-21T04:39:12.173Z,86.46
2018-12-21T04:40:12.174Z,86.35
2018-12-21T04:41:12.209Z,87.79
2018-12-21T04:42:12.184Z,88.76
2018-12-21T04:43:12.138Z,89.48
2018-12-21T04:44:12.211Z,89.89
2018-12-21T04:45:12.112Z,90.09
2018-12-21T04:46:12.159Z,90.30
2018-12-21T04:47:12.113Z,90.20
2018-12-21T04:48:12.104Z,89.58
2018-12-21T04:49:12.076Z,89.58
2018-12-21T04:50:12.064Z,89.69
2018-12-21T04:51:12.058Z,90.61
2018-12-21T04:52:12.049Z,90.09
2018-12-21T04:53:12.065Z,89.69
2018-12-21T04:54:12.016Z,90.00
2018-12-21T04:55:12.006Z,90.00
2018-12-21T04:56:11.994Z,90.20
2018-12-21T04:57:11.980Z,90.51
2018-12-21T04:58:11.996Z,90.41
2018-12-21T04:59:12.016Z,89.79
2018-12-21T05:00:11.950Z,89.89
2018-12-21T05:01:11.964Z,90.14
2018-12-21T05:02:11.922Z,90.55
2018-12-21T05:03:11.923Z,90.41
2018-12-21T05:04:19.822Z,90.92
2018-12-21T05:05:12.925Z,91.17
2018-12-21T05:06:11.874Z,90.61
2018-12-21T05:07:12.495Z,91.17
2018-12-21T05:08:11.875Z,91.27
2018-12-21T05:09:11.899Z,91.74
2018-12-21T05:10:11.860Z,91.47
2018-12-21T05:11:11.877Z,91.99
2018-12-21T05:12:11.822Z,91.44
2018-12-21T05:13:11.835Z,91.68
2018-12-21T05:14:11.798Z,92.30
2018-12-21T05:15:11.787Z,91.78
2018-12-21T05:16:11.787Z,91.78
2018-12-21T05:17:11.817Z,91.99
2018-12-21T05:18:11.743Z,91.99
2018-12-21T05:19:11.746Z,91.02
2018-12-21T05:20:11.782Z,91.47
2018-12-21T05:21:11.723Z,92.10
2018-12-21T05:22:11.712Z,91.58
2018-12-21T05:23:11.742Z,91.47
2018-12-21T05:24:11.679Z,90.92
2018-12-21T05:25:11.681Z,90.96
2018-12-21T05:26:11.656Z,90.75
2018-12-21T05:27:11.649Z,90.45
2018-12-21T05:28:11.646Z,91.06
2018-12-21T05:29:11.654Z,90.66
2018-12-21T05:30:11.610Z,91.58
2018-12-21T05:31:11.605Z,90.96
2018-12-21T05:32:11.590Z,91.23
2018-12-21T05:33:11.594Z,90.92
2018-12-21T05:34:11.568Z,90.96
2018-12-21T05:35:11.601Z,91.06
2018-12-21T05:36:11.545Z,92.16
2018-12-21T05:37:11.533Z,92.25
2018-12-21T05:38:11.521Z,91.99
2018-12-21T05:39:11.527Z,91.68
2018-12-21T05:40:11.526Z,91.44
2018-12-21T05:41:11.539Z,91.02
2018-12-21T05:42:11.478Z,91.13
2018-12-21T05:43:11.478Z,91.02
2018-12-21T05:44:11.457Z,90.81
2018-12-21T05:45:11.454Z,90.92
2018-12-21T05:46:11.441Z,90.30
2018-12-21T05:47:11.507Z,90.41
2018-12-21T05:48:11.420Z,90.00
2018-12-21T05:49:11.419Z,89.79
2018-12-21T05:50:11.393Z,89.54
2018-12-21T05:51:11.386Z,89.79
2018-12-21T05:52:11.381Z,89.69
2018-12-21T05:53:11.406Z,89.28
2018-12-21T05:54:11.346Z,89.58
2018-12-21T05:55:11.338Z,89.58
2018-12-21T05:56:11.332Z,89.54
2018-12-21T05:57:11.324Z,90.00
2018-12-21T05:58:11.301Z,89.64
2018-12-21T05:59:11.324Z,89.58
2018-12-21T06:00:11.282Z,89.58
2018-12-21T06:01:11.268Z,89.79
2018-12-21T06:02:11.268Z,89.69
2018-12-21T06:03:11.257Z,89.89
2018-12-21T06:04:11.249Z,90.30
2018-12-21T06:05:11.285Z,90.47
2018-12-21T06:06:11.234Z,90.51
2018-12-21T06:07:11.220Z,89.89
2018-12-21T06:08:11.200Z,90.30
2018-12-21T06:09:11.210Z,89.85
2018-12-21T06:10:11.184Z,90.20
2018-12-21T06:11:11.199Z,90.26
2018-12-21T06:12:11.153Z,89.89
2018-12-21T06:13:11.147Z,90.00
2018-12-21T06:14:11.157Z,89.79
2018-12-21T06:15:11.138Z,89.69
2018-12-21T06:16:11.118Z,89.79
2018-12-21T06:17:11.133Z,89.69
2018-12-21T06:18:11.099Z,89.58
2018-12-21T06:19:12.297Z,89.85
2018-12-21T06:20:11.100Z,89.95
2018-12-21T06:21:11.054Z,90.09
2018-12-21T06:22:11.058Z,89.44
2018-12-21T06:23:11.068Z,89.44
2018-12-21T06:24:11.022Z,89.64
2018-12-21T06:25:11.017Z,89.64
2018-12-21T06:26:11.007Z,89.54
2018-12-21T06:27:10.993Z,89.44
2018-12-21T06:28:10.978Z,89.64
2018-12-21T06:29:11.027Z,89.64
2018-12-21T06:30:10.954Z,89.85
2018-12-21T06:31:10.957Z,89.44
2018-12-21T06:32:10.930Z,88.89
2018-12-21T06:33:10.933Z,89.60
2018-12-21T06:34:10.907Z,89.60
2018-12-21T06:35:10.950Z,88.89
2018-12-21T06:36:10.922Z,88.89
2018-12-21T06:37:10.902Z,88.89
2018-12-21T06:38:10.867Z,88.57
2018-12-21T06:39:10.876Z,89.60
2018-12-21T06:40:10.852Z,88.78
2018-12-21T06:41:10.902Z,89.64
2018-12-21T06:42:10.848Z,89.64
2018-12-21T06:43:10.830Z,90.06
2018-12-21T06:44:10.803Z,89.54
2018-12-21T06:45:10.788Z,89.95
2018-12-21T06:46:14.300Z,89.95
2018-12-21T06:47:10.828Z,90.16
2018-12-21T06:48:10.790Z,89.44
2018-12-21T06:49:10.755Z,89.95
2018-12-21T06:50:10.740Z,89.64
2018-12-21T06:51:10.760Z,89.64
2018-12-21T06:52:10.723Z,90.16
2018-12-21T06:53:17.852Z,90.47
2018-12-21T06:54:11.707Z,89.75
2018-12-21T06:55:10.678Z,90.16
2018-12-21T06:56:10.673Z,90.47
2018-12-21T06:57:10.685Z,90.36
2018-12-21T06:58:10.651Z,90.88
2018-12-21T06:59:10.685Z,90.88
2018-12-21T07:00:10.646Z,91.29
2018-12-21T07:01:10.619Z,91.49
2018-12-21T07:02:10.616Z,91.39
2018-12-21T07:03:16.999Z,91.60
2018-12-21T07:04:11.615Z,91.91
2018-12-21T07:05:10.577Z,92.21
2018-12-21T07:06:10.586Z,91.91
2018-12-21T07:07:10.552Z,91.91
2018-12-21T07:08:10.535Z,92.11
2018-12-21T07:09:10.520Z,91.80
2018-12-21T07:10:10.561Z,91.49
2018-12-21T07:11:10.523Z,91.76
2018-12-21T07:12:10.822Z,91.49
2018-12-21T07:13:11.277Z,91.39
2018-12-21T07:14:11.393Z,91.55
2018-12-21T07:15:10.504Z,91.55
2018-12-21T07:16:10.491Z,91.39
2018-12-21T07:17:10.434Z,91.45
2018-12-21T07:18:10.419Z,91.66
2018-12-21T07:19:10.415Z,91.60
2018-12-21T07:20:10.402Z,91.66
2018-12-21T07:21:10.388Z,92.27
2018-12-21T07:22:10.426Z,91.97
2018-12-21T07:23:10.413Z,92.07
2018-12-21T07:24:10.382Z,91.97
2018-12-21T07:25:10.382Z,91.97
2018-12-21T07:26:10.334Z,91.76
2018-12-21T07:27:10.361Z,91.72
2018-12-21T07:28:10.341Z,91.76
2018-12-21T07:29:10.305Z,92.54
2018-12-21T07:30:10.329Z,92.58
2018-12-21T07:31:10.298Z,92.69
2018-12-21T07:32:10.271Z,92.58
2018-12-21T07:33:10.256Z,92.58
2018-12-21T07:34:10.286Z,92.54
2018-12-21T07:35:10.258Z,92.79
2018-12-21T07:36:10.236Z,92.48
2018-12-21T07:37:10.213Z,93.20
2018-12-21T07:38:10.203Z,92.99
2018-12-21T07:39:10.194Z,92.58
2018-12-21T07:40:10.245Z,93.05
2018-12-21T07:41:10.170Z,92.48
2018-12-21T07:42:10.162Z,92.69
2018-12-21T07:43:10.155Z,92.27
2018-12-21T07:44:10.136Z,92.48
2018-12-21T07:45:10.128Z,92.58
2018-12-21T07:46:10.176Z,92.64
2018-12-21T07:47:10.105Z,92.44
2018-12-21T07:48:10.101Z,92.54
2018-12-21T07:49:10.090Z,93.05
2018-12-21T07:50:10.109Z,92.85
2018-12-21T07:51:10.067Z,92.54
2018-12-21T07:52:10.090Z,92.85
2018-12-21T07:53:10.041Z,92.54
2018-12-21T07:54:10.076Z,93.05
2018-12-21T07:55:10.026Z,92.95
2018-12-21T07:56:10.012Z,92.23
2018-12-21T07:57:10.035Z,92.60
2018-12-21T07:58:10.057Z,92.64
2018-12-21T07:59:09.972Z,92.44
2018-12-21T08:00:09.965Z,92.40
2018-12-21T08:01:09.951Z,92.19
2018-12-21T08:02:09.938Z,92.80
2018-12-21T08:03:09.952Z,92.60
2018-12-21T08:04:09.968Z,92.70
2018-12-21T08:05:10.019Z,92.50
2018-12-21T08:06:09.900Z,92.50
2018-12-21T08:07:09.899Z,92.29
2018-12-21T08:08:09.876Z,92.19
2018-12-21T08:09:09.871Z,91.74
2018-12-21T08:10:09.885Z,91.99
2018-12-21T08:11:09.834Z,92.14
2018-12-21T08:12:09.855Z,91.63
2018-12-21T08:13:09.823Z,92.46
2018-12-21T08:14:09.820Z,92.40
2018-12-21T08:15:09.810Z,92.66
2018-12-21T08:16:09.821Z,92.60
2018-12-21T08:17:09.775Z,92.91
2018-12-21T08:18:09.767Z,93.12
2018-12-21T08:19:09.903Z,92.91
2018-12-21T08:20:09.741Z,93.12
2018-12-21T08:21:09.749Z,93.42
2018-12-21T08:22:09.747Z,93.12
2018-12-21T08:23:09.718Z,93.42
2018-12-21T08:24:09.706Z,93.01
2018-12-21T08:25:09.705Z,93.01
2018-12-21T08:26:09.685Z,92.86
2018-12-21T08:27:09.748Z,92.46
2018-12-21T08:28:09.696Z,92.97
2018-12-21T08:29:09.699Z,92.66
2018-12-21T08:30:09.691Z,93.07
2018-12-21T08:31:11.240Z,92.86
2018-12-21T08:32:09.609Z,92.86
2018-12-21T08:33:09.605Z,93.38
2018-12-21T08:34:09.616Z,93.79
2018-12-21T08:35:09.570Z,93.68
2018-12-21T08:36:09.562Z,93.68
2018-12-21T08:37:09.550Z,93.27
2018-12-21T08:38:09.544Z,93.38
2018-12-21T08:39:09.781Z,92.76
2018-12-21T08:40:09.551Z,93.17
2018-12-21T08:41:09.511Z,93.68
2018-12-21T08:42:09.500Z,93.99
2018-12-21T08:43:09.552Z,93.38
2018-12-21T08:44:09.472Z,93.68
2018-12-21T08:45:09.464Z,93.59
2018-12-21T08:46:09.483Z,93.27
2018-12-21T08:47:09.450Z,93.23
2018-12-21T08:48:09.432Z,92.31
2018-12-21T08:49:09.422Z,93.02
2018-12-21T08:50:09.411Z,92.61
2018-12-21T08:51:09.394Z,92.82
2018-12-21T08:52:09.410Z,93.13
2018-12-21T08:53:09.374Z,93.23
2018-12-21T08:54:09.360Z,93.02
2018-12-21T08:55:09.357Z,93.13
2018-12-21T08:56:09.346Z,92.82
2018-12-21T08:57:09.323Z,92.93
2018-12-21T08:58:09.389Z,92.78
2018-12-21T08:59:09.306Z,92.57
2018-12-21T09:00:09.309Z,92.06
2018-12-21T09:01:09.358Z,92.16
2018-12-21T09:02:09.301Z,92.06
2018-12-21T09:03:09.297Z,92.02
2018-12-21T09:04:09.277Z,91.96
2018-12-21T09:05:09.255Z,92.22
2018-12-21T09:06:09.321Z,92.32
2018-12-21T09:07:09.218Z,92.43
2018-12-21T09:08:09.210Z,92.53
2018-12-21T09:09:09.203Z,92.22
2018-12-21T09:10:09.239Z,92.02
2018-12-21T09:11:09.198Z,92.43
2018-12-21T09:12:09.177Z,92.79
2018-12-21T09:13:09.193Z,91.91
2018-12-21T09:14:09.139Z,91.46
2018-12-21T09:15:09.127Z,91.05
2018-12-21T09:16:09.155Z,91.26
2018-12-21T09:17:09.134Z,91.36
2018-12-21T09:18:09.098Z,91.11
2018-12-21T09:19:09.079Z,91.26
2018-12-21T09:20:09.071Z,91.11
2018-12-21T09:21:09.072Z,90.91
2018-12-21T09:22:09.120Z,90.30
2018-12-21T09:23:09.046Z,90.30
2018-12-21T09:24:09.025Z,90.45
2018-12-21T09:25:09.016Z,90.60
2018-12-21T09:26:09.013Z,90.56
2018-12-21T09:27:08.992Z,89.74
2018-12-21T09:28:09.020Z,90.56
2018-12-21T09:29:08.975Z,90.45
2018-12-21T09:30:08.969Z,90.25
2018-12-21T09:31:08.982Z,89.84
2018-12-21T09:32:08.937Z,89.90
2018-12-21T09:33:08.929Z,89.18
2018-12-21T09:34:08.952Z,89.29
2018-12-21T09:35:08.902Z,88.23
2018-12-21T09:36:08.900Z,88.43
2018-12-21T09:37:08.905Z,88.53
2018-12-21T09:38:08.871Z,87.82
2018-12-21T09:39:08.856Z,88.29
2018-12-21T09:40:08.908Z,87.57
2018-12-21T09:41:08.853Z,87.88
2018-12-21T09:42:08.847Z,87.16
2018-12-21T09:43:08.839Z,87.67
2018-12-21T09:44:08.810Z,86.20
2018-12-21T09:45:08.799Z,86.82
2018-12-21T09:46:08.836Z,87.53
2018-12-21T09:47:08.781Z,86.91
2018-12-21T09:48:08.761Z,85.89
2018-12-21T09:49:08.766Z,86.51
2018-12-21T09:50:08.738Z,86.61
2018-12-21T09:51:08.862Z,86.67
2018-12-21T09:52:08.749Z,86.71
2018-12-21T09:53:08.733Z,86.82
2018-12-21T09:54:09.981Z,86.41
2018-12-21T09:55:08.687Z,85.75
2018-12-21T09:56:08.745Z,86.06
2018-12-21T09:57:08.708Z,85.96
2018-12-21T09:58:08.681Z,86.06
2018-12-21T09:59:08.671Z,85.96
2018-12-21T10:00:08.632Z,85.96
2018-12-21T10:01:08.618Z,85.71
2018-12-21T10:02:08.611Z,85.30
2018-12-21T10:03:08.598Z,85.71
2018-12-21T10:04:08.616Z,86.06
2018-12-21T10:05:08.575Z,85.71
2018-12-21T10:06:08.569Z,85.71
2018-12-21T10:07:08.599Z,85.71
2018-12-21T10:08:08.555Z,85.51
2018-12-21T10:09:08.528Z,86.22
2018-12-21T10:10:08.554Z,86.12
2018-12-21T10:11:08.526Z,85.30
2018-12-21T10:12:08.490Z,85.41
2018-12-21T10:13:08.728Z,85.71
2018-12-21T10:14:08.470Z,85.27
2018-12-21T10:15:08.515Z,85.37
2018-12-21T10:16:08.485Z,86.18
2018-12-21T10:17:08.436Z,85.16
2018-12-21T10:18:08.437Z,85.47
2018-12-21T10:19:08.446Z,85.47
2018-12-21T10:20:08.435Z,85.16
2018-12-21T10:21:08.415Z,85.27
2018-12-21T10:22:08.465Z,85.27
2018-12-21T10:23:08.370Z,85.37
2018-12-21T10:24:08.377Z,85.37
2018-12-21T10:25:08.344Z,85.06
2018-12-21T10:26:08.346Z,85.13
2018-12-21T10:27:08.333Z,84.51
2018-12-21T10:28:08.492Z,84.82
2018-12-21T10:29:08.371Z,85.33
2018-12-21T10:30:08.306Z,85.13
2018-12-21T10:31:08.278Z,85.13
2018-12-21T10:32:08.286Z,85.33
2018-12-21T10:33:08.267Z,85.13
2018-12-21T10:34:08.283Z,84.92
2018-12-21T10:35:08.248Z,84.58
2018-12-21T10:36:08.234Z,83.96
2018-12-21T10:37:08.217Z,83.65
2018-12-21T10:38:08.201Z,84.47
2018-12-21T10:39:08.192Z,83.96
2018-12-21T10:40:08.239Z,84.27
2018-12-21T10:41:08.173Z,84.47
2018-12-21T10:42:08.155Z,84.78
2018-12-21T10:43:08.147Z,84.06
2018-12-21T10:44:08.154Z,84.06
2018-12-21T10:45:08.124Z,84.37
2018-12-21T10:46:08.184Z,84.47
2018-12-21T10:47:08.100Z,84.06
2018-12-21T10:48:08.170Z,84.98
2018-12-21T10:49:08.085Z,84.58
2018-12-21T10:50:08.071Z,84.67
2018-12-21T10:51:08.054Z,83.86
2018-12-21T10:52:08.095Z,84.47
2018-12-21T10:53:08.035Z,84.12
2018-12-21T10:54:08.036Z,84.03
2018-12-21T10:55:08.027Z,83.92
2018-12-21T10:56:08.007Z,83.72
2018-12-21T10:57:07.985Z,83.31
2018-12-21T10:58:08.025Z,82.97
2018-12-21T10:59:07.966Z,82.80
2018-12-21T11:00:07.951Z,83.78
2018-12-21T11:01:07.939Z,84.29
2018-12-21T11:02:07.927Z,82.76
2018-12-21T11:03:07.919Z,83.48
2018-12-21T11:04:07.957Z,83.78
2018-12-21T11:05:07.901Z,83.78
2018-12-21T11:06:07.893Z,83.98
2018-12-21T11:07:07.879Z,83.68
2018-12-21T11:08:07.858Z,83.17
2018-12-21T11:09:07.885Z,83.37
2018-12-21T11:10:07.939Z,83.37
2018-12-21T11:11:07.830Z,83.98
2018-12-21T11:12:07.822Z,83.37
2018-12-21T11:13:07.803Z,83.58
2018-12-21T11:14:07.793Z,83.89
2018-12-21T11:15:07.780Z,83.58
2018-12-21T11:16:07.836Z,83.89
2018-12-21T11:17:07.768Z,84.19
2018-12-21T11:18:07.742Z,83.89
2018-12-21T11:19:07.735Z,84.80
2018-12-21T11:20:07.722Z,84.80
2018-12-21T11:21:07.738Z,83.89
2018-12-21T11:22:07.769Z,83.89
2018-12-21T11:23:07.687Z,83.84
2018-12-21T11:24:07.678Z,84.39
2018-12-21T11:25:07.674Z,84.70
2018-12-21T11:26:07.652Z,84.25
2018-12-21T11:27:07.642Z,84.29
2018-12-21T11:28:07.695Z,84.86
2018-12-21T11:29:07.619Z,84.70
2018-12-21T11:30:07.609Z,84.80
2018-12-21T11:31:07.597Z,84.39
2018-12-21T11:32:07.597Z,84.56
2018-12-21T11:33:07.584Z,84.66
2018-12-21T11:34:07.637Z,84.35
2018-12-21T11:35:07.552Z,84.35
2018-12-21T11:36:07.550Z,84.56
2018-12-21T11:37:07.536Z,84.35
2018-12-21T11:38:07.517Z,84.25
2018-12-21T11:39:07.505Z,84.45
2018-12-21T11:40:07.535Z,84.90
2018-12-21T11:41:07.491Z,83.84
2018-12-21T11:42:07.470Z,84.66
2018-12-21T11:43:07.458Z,84.76
2018-12-21T11:44:07.459Z,84.76
2018-12-21T11:45:07.452Z,85.06
2018-12-21T11:46:07.468Z,84.35
2018-12-21T11:47:07.420Z,84.35
2018-12-21T11:48:07.456Z,84.35
2018-12-21T11:49:07.397Z,84.21
2018-12-21T11:50:07.392Z,84.72
2018-12-21T11:51:07.376Z,84.25
2018-12-21T11:52:07.398Z,84.31
2018-12-21T11:53:08.219Z,84.42
2018-12-21T11:54:07.346Z,83.50
2018-12-21T11:55:15.916Z,83.91
2018-12-21T11:56:07.426Z,84.42
2018-12-21T11:57:07.316Z,84.21
2018-12-21T11:58:07.434Z,84.21
2018-12-21T11:59:07.279Z,84.72
2018-12-21T12:00:07.267Z,84.11
2018-12-21T12:01:07.283Z,84.31
2018-12-21T12:02:07.247Z,84.11
2018-12-21T12:03:07.249Z,84.42
2018-12-21T12:04:07.259Z,84.21
2018-12-21T12:05:07.214Z,83.81
2018-12-21T12:06:07.230Z,84.17
2018-12-21T12:07:07.201Z,84.62
2018-12-21T12:08:07.185Z,84.21
2018-12-21T12:09:07.171Z,83.87
2018-12-21T12:10:07.193Z,84.21
2018-12-21T12:11:07.143Z,84.62
2018-12-21T12:12:07.135Z,84.52
2018-12-21T12:13:07.122Z,84.82
2018-12-21T12:14:07.136Z,84.11
2018-12-21T12:15:07.105Z,84.52
2018-12-21T12:16:07.144Z,84.38
2018-12-21T12:17:07.079Z,84.38
2018-12-21T12:18:07.072Z,84.17
2018-12-21T12:19:07.067Z,83.87
2018-12-21T12:20:07.076Z,83.67
2018-12-21T12:21:07.057Z,83.06
2018-12-21T12:22:07.046Z,82.75
2018-12-21T12:23:07.009Z,82.85
2018-12-21T12:24:07.015Z,82.61
2018-12-21T12:25:06.990Z,82.54
2018-12-21T12:26:06.969Z,82.54
2018-12-21T12:27:06.997Z,82.85
2018-12-21T12:28:06.996Z,82.71
2018-12-21T12:29:06.940Z,82.10
2018-12-21T12:30:06.933Z,81.90
2018-12-21T12:31:06.929Z,81.96
2018-12-21T12:32:06.902Z,81.96
2018-12-21T12:33:06.924Z,81.76
2018-12-21T12:34:06.910Z,81.35
2018-12-21T12:35:06.879Z,80.84
2018-12-21T12:36:06.862Z,80.24
2018-12-21T12:37:06.850Z,80.44
2018-12-21T12:38:06.842Z,80.19
2018-12-21T12:39:06.837Z,80.40
2018-12-21T12:40:06.865Z,78.37
2018-12-21T12:41:07.062Z,78.47
2018-12-21T12:42:06.817Z,79.04
2018-12-21T12:43:06.785Z,77.52
2018-12-21T12:44:06.771Z,77.83
2018-12-21T12:45:06.777Z,77.62
2018-12-21T12:46:06.815Z,77.52
2018-12-21T12:47:06.731Z,78.06
2018-12-21T12:48:06.724Z,78.03
2018-12-21T12:49:06.755Z,78.03
2018-12-21T12:50:06.707Z,79.14
2018-12-21T12:51:06.699Z,77.45
2018-12-21T12:52:06.723Z,77.42